createdAt,value
2022-08-25T00:00:24.830Z,12.35
2022-08-25T00:03:35.880Z,13.30
2022-08-25T00:06:44.909Z,13.93
2022-08-25T00:09:50.099Z,13.73
2022-08-25T00:12:55.530Z,13.55
2022-08-25T00:16:01.157Z,12.38
2022-08-25T00:19:11.094Z,13.75
2022-08-25T00:22:16.092Z,12.00
2022-08-25T00:25:21.751Z,13.15
2022-08-25T00:28:27.094Z,13.05
2022-08-25T00:31:37.716Z,13.32
2022-08-25T00:34:47.187Z,13.82
2022-08-25T00:37:52.446Z,14.27
2022-08-25T00:41:08.763Z,12.65
2022-08-25T00:44:16.707Z,13.75
2022-08-25T00:47:21.968Z,13.82
2022-08-25T00:50:30.705Z,13.30
2022-08-25T00:53:35.793Z,13.60
2022-08-25T00:56:41.083Z,14.52
2022-08-25T00:59:46.643Z,14.13
2022-08-25T01:02:52.455Z,14.15
2022-08-25T01:06:00.360Z,14.32
2022-08-25T01:09:05.533Z,15.40
2022-08-25T01:12:10.971Z,14.68
2022-08-25T01:15:17.039Z,14.00
2022-08-25T01:18:22.144Z,15.57
2022-08-25T01:21:31.874Z,15.75
2022-08-25T01:24:41.142Z,14.60
2022-08-25T01:27:46.376Z,16.73
2022-08-25T01:30:52.759Z,15.57
2022-08-25T01:33:58.590Z,15.02
2022-08-25T01:37:06.612Z,16.17
2022-08-25T01:40:12.643Z,15.70
2022-08-25T01:43:24.214Z,17.33
2022-08-25T01:46:29.980Z,16.60
2022-08-25T01:49:35.259Z,15.95
2022-08-25T01:52:48.704Z,16.58
2022-08-25T01:56:02.672Z,16.58
2022-08-25T01:59:08.890Z,17.33
2022-08-25T02:02:14.233Z,17.35
2022-08-25T02:05:23.349Z,16.50
2022-08-25T02:08:31.517Z,18.40
2022-08-25T02:11:37.274Z,17.55
2022-08-25T02:14:42.422Z,16.50
2022-08-25T02:17:47.391Z,17.13
2022-08-25T02:20:52.666Z,17.38
2022-08-25T02:24:00.578Z,17.77
2022-08-25T02:27:05.659Z,17.98
2022-08-25T02:30:11.994Z,17.17
2022-08-25T02:33:17.143Z,16.13
2022-08-25T02:36:23.469Z,17.60
2022-08-25T02:39:31.406Z,16.92
2022-08-25T02:42:36.593Z,16.67
2022-08-25T02:45:41.793Z,17.67
2022-08-25T02:48:47.030Z,17.63
2022-08-25T02:51:52.531Z,16.30
2022-08-25T02:55:00.474Z,16.92
2022-08-25T02:58:05.761Z,16.10
2022-08-25T03:01:12.507Z,17.27
2022-08-25T03:04:17.786Z,17.25
2022-08-25T03:07:24.766Z,16.17
2022-08-25T03:10:32.694Z,16.73
2022-08-25T03:13:37.909Z,16.92
2022-08-25T03:16:46.365Z,17.52
2022-08-25T03:19:52.053Z,17.10
2022-08-25T03:22:57.424Z,16.23
2022-08-25T03:26:17.348Z,16.33
2022-08-25T03:29:22.950Z,16.02
2022-08-25T03:32:28.340Z,17.63
2022-08-25T03:35:33.602Z,16.08
2022-08-25T03:38:39.652Z,16.67
2022-08-25T03:41:47.631Z,17.35
2022-08-25T03:44:52.991Z,16.92
2022-08-25T03:47:58.321Z,15.93
2022-08-25T03:51:03.587Z,18.33
2022-08-25T03:54:09.109Z,16.33
2022-08-25T03:57:16.872Z,18.83
2022-08-25T04:00:22.346Z,19.27
2022-08-25T04:03:27.502Z,18.92
2022-08-25T04:06:32.995Z,19.20
2022-08-25T04:09:38.154Z,18.67
2022-08-25T04:12:45.953Z,18.50
2022-08-25T04:15:51.484Z,18.58
2022-08-25T04:18:57.283Z,18.85
2022-08-25T04:22:02.559Z,17.42
2022-08-25T04:25:09.704Z,18.42
2022-08-25T04:28:18.144Z,18.23
2022-08-25T04:31:24.818Z,18.02
2022-08-25T04:34:31.606Z,18.20
2022-08-25T04:37:36.955Z,19.63
2022-08-25T04:40:42.122Z,17.65
2022-08-25T04:43:49.888Z,17.77
2022-08-25T04:46:55.193Z,18.15
2022-08-25T04:50:00.359Z,16.95
2022-08-25T04:53:05.464Z,18.27
2022-08-25T04:56:11.776Z,17.52
2022-08-25T04:59:20.308Z,16.52
2022-08-25T05:02:25.631Z,16.05
2022-08-25T05:05:30.974Z,16.10
2022-08-25T05:08:35.978Z,15.43
2022-08-25T05:11:41.491Z,15.57
2022-08-25T05:14:49.127Z,15.63
2022-08-25T05:17:56.063Z,17.13
2022-08-25T05:21:04.596Z,18.55
2022-08-25T05:24:10.465Z,18.23
2022-08-25T05:27:15.638Z,17.77
2022-08-25T05:30:23.452Z,18.45
2022-08-25T05:33:30.602Z,17.00
2022-08-25T05:36:38.714Z,17.92
2022-08-25T05:39:43.998Z,17.98
2022-08-25T05:42:49.291Z,17.05
2022-08-25T05:45:59.585Z,18.60
2022-08-25T05:49:04.969Z,15.63
2022-08-25T05:52:11.347Z,15.75
2022-08-25T05:58:23.658Z,15.48
2022-08-25T06:01:45.409Z,15.40
2022-08-25T06:04:51.158Z,15.45
2022-08-25T06:07:56.214Z,14.50
2022-08-25T06:11:01.529Z,14.13
2022-08-25T06:14:06.787Z,16.40
2022-08-25T06:17:14.807Z,14.38
2022-08-25T06:20:22.046Z,14.07
2022-08-25T06:23:30.491Z,12.65
2022-08-25T06:26:35.609Z,11.85
2022-08-25T06:29:40.872Z,12.40
2022-08-25T06:32:50.306Z,12.85
2022-08-25T06:35:57.141Z,11.20
2022-08-25T06:39:02.232Z,11.52
2022-08-25T06:42:08.036Z,11.75
2022-08-25T06:45:13.536Z,11.90
2022-08-25T06:48:24.061Z,11.00
2022-08-25T06:51:29.111Z,11.88
2022-08-25T06:54:34.491Z,11.75
2022-08-25T06:57:39.532Z,11.88
2022-08-25T07:00:44.859Z,10.65
2022-08-25T07:03:53.155Z,10.90
2022-08-25T07:06:59.237Z,10.10
2022-08-25T07:10:04.630Z,10.30
2022-08-25T07:13:09.720Z,10.13
2022-08-25T07:16:16.106Z,13.40
2022-08-25T07:19:23.989Z,9.95
2022-08-25T07:22:29.401Z,9.98
2022-08-25T07:25:34.438Z,10.15
2022-08-25T07:28:39.867Z,8.88
2022-08-25T07:31:52.664Z,10.18
2022-08-25T07:35:13.576Z,9.90
2022-08-25T07:38:20.885Z,12.40
2022-08-25T07:41:26.505Z,9.32
2022-08-25T07:44:32.039Z,8.80
2022-08-25T07:47:37.358Z,9.07
2022-08-25T07:50:46.489Z,8.90
2022-08-25T07:53:52.056Z,8.52
2022-08-25T07:56:57.765Z,8.23
2022-08-25T08:00:03.150Z,8.52
2022-08-25T08:03:35.168Z,8.30
2022-08-25T08:06:44.664Z,8.18
2022-08-25T08:10:00.399Z,8.10
2022-08-25T08:13:18.438Z,8.68
2022-08-25T08:16:24.882Z,8.18
2022-08-25T08:19:30.130Z,7.47
2022-08-25T08:22:38.099Z,7.30
2022-08-25T08:25:44.570Z,6.38
2022-08-25T08:28:52.069Z,6.75
2022-08-25T08:35:02.266Z,7.07
2022-08-25T08:38:18.497Z,7.22
2022-08-25T08:42:11.715Z,7.05
2022-08-25T08:45:27.742Z,6.70
2022-08-25T08:48:50.331Z,6.43
2022-08-25T08:51:58.829Z,7.28
2022-08-25T08:55:08.718Z,7.00
2022-08-25T08:58:18.732Z,7.18
2022-08-25T09:01:27.547Z,7.38
2022-08-25T09:04:35.788Z,6.80
2022-08-25T09:07:43.450Z,6.97
2022-08-25T09:10:58.963Z,6.95
2022-08-25T09:14:11.035Z,7.40
2022-08-25T09:17:20.246Z,8.07
2022-08-25T09:20:46.884Z,7.35
2022-08-25T09:24:02.148Z,8.50
2022-08-25T09:27:17.911Z,7.53
2022-08-25T09:30:24.988Z,7.80
2022-08-25T09:33:33.579Z,6.47
2022-08-25T09:36:38.771Z,7.30
2022-08-25T09:39:43.868Z,8.02
2022-08-25T09:42:57.692Z,7.28
2022-08-25T09:46:04.814Z,7.72
2022-08-25T09:49:16.903Z,8.02
2022-08-25T09:52:26.124Z,8.45
2022-08-25T09:55:34.574Z,7.38
2022-08-25T09:58:43.174Z,6.60
2022-08-25T10:01:51.174Z,9.63
2022-08-25T10:08:02.460Z,6.85
2022-08-25T10:11:09.528Z,7.05
2022-08-25T10:14:29.789Z,7.55
2022-08-25T10:17:35.889Z,7.78
2022-08-25T10:20:44.467Z,7.15
2022-08-25T10:23:52.954Z,7.57
2022-08-25T10:27:04.453Z,7.70
2022-08-25T10:30:18.039Z,9.50
2022-08-25T10:33:28.799Z,7.55
2022-08-25T10:36:38.362Z,7.43
2022-08-25T10:39:56.654Z,7.72
2022-08-25T10:43:08.648Z,7.55
2022-08-25T10:46:24.023Z,7.60
2022-08-25T10:49:35.545Z,8.60
2022-08-25T10:52:42.123Z,7.85
2022-08-25T10:55:52.962Z,7.57
2022-08-25T10:59:06.655Z,11.48
2022-08-25T11:02:27.086Z,8.40
2022-08-25T11:05:37.018Z,8.38
2022-08-25T11:08:45.752Z,8.10
2022-08-25T11:11:55.345Z,7.57
2022-08-25T11:15:01.656Z,7.95
2022-08-25T11:18:14.750Z,7.53
2022-08-25T11:21:22.925Z,7.38
2022-08-25T11:24:43.914Z,8.77
2022-08-25T11:27:52.546Z,8.48
2022-08-25T11:30:59.146Z,8.05
2022-08-25T11:34:07.457Z,7.97
2022-08-25T11:37:17.767Z,8.30
2022-08-25T11:40:26.947Z,7.93
2022-08-25T11:43:38.054Z,7.45
2022-08-25T11:46:52.249Z,8.38
2022-08-25T11:50:03.555Z,8.13
2022-08-25T11:53:23.684Z,8.38
2022-08-25T11:56:35.259Z,7.60
2022-08-25T11:59:55.669Z,8.60
2022-08-25T12:03:01.843Z,8.55
2022-08-25T12:06:25.456Z,8.32
2022-08-25T12:09:30.478Z,7.30
2022-08-25T12:12:39.238Z,8.40
2022-08-25T12:16:00.707Z,7.90
2022-08-25T12:19:20.577Z,7.90
2022-08-25T12:22:41.048Z,8.38
2022-08-25T12:25:56.862Z,8.30
2022-08-25T12:29:07.954Z,7.93
2022-08-25T12:32:28.470Z,15.25
2022-08-25T12:35:34.532Z,9.30
2022-08-25T12:38:44.089Z,7.97
2022-08-25T12:45:24.114Z,8.07
2022-08-25T12:48:44.239Z,7.85
2022-08-25T12:51:55.021Z,9.05
2022-08-25T12:55:06.381Z,8.65
2022-08-25T12:58:14.559Z,8.85
2022-08-25T13:01:36.105Z,8.15
2022-08-25T13:05:02.476Z,8.80
2022-08-25T13:08:26.813Z,8.23
2022-08-25T13:11:37.104Z,11.55
2022-08-25T13:14:46.303Z,8.00
2022-08-25T13:17:51.280Z,8.27
2022-08-25T13:20:59.011Z,9.20
2022-08-25T13:27:11.385Z,8.10
2022-08-25T13:30:26.529Z,11.90
2022-08-25T13:33:32.433Z,10.52
2022-08-25T13:36:56.567Z,11.20
2022-08-25T13:40:11.176Z,9.32
2022-08-25T13:43:17.111Z,9.52
2022-08-25T13:46:25.869Z,8.25
2022-08-25T13:49:31.584Z,9.15
2022-08-25T13:52:36.632Z,8.82
2022-08-25T13:55:51.095Z,8.77
2022-08-25T13:58:58.890Z,9.02
2022-08-25T14:02:06.701Z,9.68
2022-08-25T14:05:13.804Z,11.98
2022-08-25T14:08:32.418Z,8.60
2022-08-25T14:11:44.262Z,8.45
2022-08-25T14:15:00.323Z,8.15
2022-08-25T14:18:09.932Z,8.52
2022-08-25T14:21:19.772Z,8.65
2022-08-25T14:24:27.241Z,8.18
2022-08-25T14:27:38.774Z,8.32
2022-08-25T14:30:51.725Z,9.25
2022-08-25T14:34:00.963Z,8.48
2022-08-25T14:37:09.861Z,8.52
2022-08-25T14:40:20.024Z,8.48
2022-08-25T14:43:31.877Z,8.90
2022-08-25T14:46:39.489Z,8.45
2022-08-25T14:49:49.799Z,8.73
2022-08-25T14:52:55.798Z,8.20
2022-08-25T14:56:06.933Z,8.52
2022-08-25T14:59:14.504Z,8.88
2022-08-25T15:02:21.170Z,9.23
2022-08-25T15:05:29.324Z,9.40
2022-08-25T15:08:47.712Z,16.48
2022-08-25T15:11:54.487Z,9.52
2022-08-25T15:14:59.966Z,9.93
2022-08-25T15:18:05.720Z,30.60
2022-08-25T15:21:14.733Z,10.18
2022-08-25T15:24:20.655Z,10.88
2022-08-25T15:27:26.031Z,10.05
2022-08-25T15:30:36.360Z,9.98
2022-08-25T15:33:41.568Z,12.88
2022-08-25T15:36:50.570Z,10.65
2022-08-25T15:39:55.683Z,22.48
2022-08-25T15:43:01.787Z,10.80
2022-08-25T15:46:09.420Z,10.05
2022-08-25T15:49:14.942Z,14.43
2022-08-25T15:52:39.424Z,13.82
2022-08-25T15:55:52.418Z,11.18
2022-08-25T15:58:59.572Z,11.60
2022-08-25T16:02:04.878Z,10.45
2022-08-25T16:05:25.759Z,12.43
2022-08-25T16:08:34.027Z,12.50
2022-08-25T16:11:43.605Z,21.13
2022-08-25T16:17:53.866Z,14.50
2022-08-25T16:20:59.627Z,15.85
2022-08-25T16:24:09.312Z,14.13
2022-08-25T16:27:14.871Z,11.35
2022-08-25T16:30:20.340Z,13.35
2022-08-25T16:33:25.452Z,16.65
2022-08-25T16:36:30.793Z,12.73
2022-08-25T16:39:40.236Z,13.38
2022-08-25T16:42:46.551Z,12.95
2022-08-25T16:46:00.201Z,13.00
2022-08-25T16:49:07.650Z,19.10
2022-08-25T16:52:25.018Z,15.68
2022-08-25T16:55:38.668Z,13.27
2022-08-25T16:58:45.733Z,14.48
2022-08-25T17:01:51.186Z,12.57
2022-08-25T17:04:56.446Z,11.45
2022-08-25T17:08:17.889Z,12.23
2022-08-25T17:11:26.744Z,12.30
2022-08-25T17:14:32.208Z,15.73
2022-08-25T17:17:37.544Z,12.02
2022-08-25T17:20:43.733Z,12.23
2022-08-25T17:23:48.739Z,12.50
2022-08-25T17:26:59.100Z,15.60
2022-08-25T17:30:04.688Z,12.73
2022-08-25T17:33:09.837Z,14.52
2022-08-25T17:36:17.287Z,13.27
2022-08-25T17:39:23.741Z,13.70
2022-08-25T17:42:32.017Z,12.90
2022-08-25T17:45:37.483Z,13.65
2022-08-25T17:48:44.769Z,13.55
2022-08-25T17:51:50.546Z,13.43
2022-08-25T17:54:55.817Z,13.30
2022-08-25T17:58:06.969Z,13.95
2022-08-25T18:01:17.594Z,14.57
2022-08-25T18:04:22.641Z,13.82
2022-08-25T18:07:27.666Z,14.63
2022-08-25T18:10:33.424Z,17.83
2022-08-25T18:13:41.978Z,15.52
2022-08-25T18:16:47.335Z,15.07
2022-08-25T18:19:52.407Z,14.60
2022-08-25T18:22:58.699Z,16.08
2022-08-25T18:26:03.926Z,16.02
2022-08-25T18:32:21.258Z,15.70
2022-08-25T18:35:31.482Z,14.95
2022-08-25T18:38:49.139Z,15.55
2022-08-25T18:41:54.319Z,15.23
2022-08-25T18:44:59.746Z,15.35
2022-08-25T18:48:07.905Z,15.90
2022-08-25T18:51:13.434Z,16.27
2022-08-25T18:54:23.530Z,16.90
2022-08-25T18:57:29.226Z,17.45
2022-08-25T19:00:34.646Z,16.23
2022-08-25T19:03:43.535Z,15.85
2022-08-25T19:06:49.028Z,15.73
2022-08-25T19:09:57.040Z,16.00
2022-08-25T19:13:08.118Z,16.67
2022-08-25T19:16:17.550Z,16.42
2022-08-25T19:19:28.300Z,17.10
2022-08-25T19:25:47.591Z,17.70
2022-08-25T19:28:53.754Z,17.33
2022-08-25T19:32:01.197Z,17.23
2022-08-25T19:35:09.881Z,18.85
2022-08-25T19:38:33.492Z,18.80
2022-08-25T19:41:40.307Z,18.05
2022-08-25T19:44:45.835Z,18.90
2022-08-25T19:47:51.590Z,18.00
2022-08-25T19:51:01.674Z,17.77
2022-08-25T19:57:13.262Z,18.73
2022-08-25T20:00:34.370Z,19.17
2022-08-25T20:03:42.512Z,19.92
2022-08-25T20:06:50.664Z,18.98
2022-08-25T20:09:56.402Z,19.33
2022-08-25T20:13:03.525Z,19.75
2022-08-25T20:16:08.663Z,19.13
2022-08-25T20:19:14.040Z,18.75
2022-08-25T20:22:26.322Z,19.45
2022-08-25T20:25:36.791Z,20.20
2022-08-25T20:28:42.422Z,19.98
2022-08-25T20:31:48.001Z,19.15
2022-08-25T20:34:53.545Z,19.80
2022-08-25T20:38:04.052Z,20.37
2022-08-25T20:44:13.982Z,18.70
2022-08-25T20:47:20.751Z,19.30
2022-08-25T20:50:26.496Z,18.35
2022-08-25T20:53:34.277Z,19.80
2022-08-25T20:56:39.688Z,19.33
2022-08-25T20:59:45.178Z,19.75
2022-08-25T21:02:51.260Z,19.38
2022-08-25T21:05:56.330Z,19.60
2022-08-25T21:09:04.221Z,19.80
2022-08-25T21:12:09.701Z,19.75
2022-08-25T21:15:17.983Z,18.50
2022-08-25T21:18:23.793Z,19.48
2022-08-25T21:21:30.431Z,17.73
2022-08-25T21:24:38.159Z,18.67
2022-08-25T21:27:43.721Z,19.02
2022-08-25T21:30:48.905Z,18.88
2022-08-25T21:33:56.329Z,18.60
2022-08-25T21:37:01.775Z,19.42
2022-08-25T21:40:10.358Z,19.65
2022-08-25T21:43:15.900Z,19.25
2022-08-25T21:46:24.828Z,18.83
2022-08-25T21:49:30.768Z,19.70
2022-08-25T21:52:42.786Z,20.70
2022-08-25T21:55:50.694Z,20.75
2022-08-25T21:58:55.825Z,19.65
2022-08-25T22:02:01.669Z,18.73
2022-08-25T22:05:09.297Z,19.45
2022-08-25T22:08:17.098Z,20.23
2022-08-25T22:11:28.062Z,20.42
2022-08-25T22:14:38.002Z,20.27
2022-08-25T22:17:43.168Z,21.27
2022-08-25T22:20:48.790Z,19.75
2022-08-25T22:23:56.006Z,21.42
2022-08-25T22:27:03.730Z,21.67
2022-08-25T22:30:21.164Z,21.85
2022-08-25T22:33:26.580Z,20.42
2022-08-25T22:36:32.967Z,20.45
2022-08-25T22:39:38.373Z,22.00
2022-08-25T22:42:48.338Z,21.67
2022-08-25T22:46:02.721Z,21.45
2022-08-25T22:49:08.483Z,21.95
2022-08-25T22:52:14.911Z,20.38
2022-08-25T22:55:21.999Z,21.98
2022-08-25T22:58:30.159Z,22.07
2022-08-25T23:01:36.560Z,22.95
2022-08-25T23:04:43.523Z,23.08
2022-08-25T23:07:48.610Z,21.60
2022-08-25T23:10:55.227Z,21.88
2022-08-25T23:14:05.738Z,22.30
2022-08-25T23:17:11.646Z,21.80
2022-08-25T23:20:29.567Z,21.38
2022-08-25T23:23:38.067Z,22.88
2022-08-25T23:26:43.697Z,20.98
2022-08-25T23:29:57.303Z,21.83
2022-08-25T23:33:02.753Z,21.90
2022-08-25T23:36:08.995Z,22.40
2022-08-25T23:39:16.051Z,22.13
2022-08-25T23:42:22.233Z,22.20
2022-08-25T23:45:30.301Z,21.85
2022-08-25T23:48:35.522Z,23.20
2022-08-25T23:51:41.433Z,21.92
2022-08-25T23:54:47.485Z,22.05
2022-08-25T23:57:52.493Z,22.17
